Terminal Aerodrome Forecast
Issued by NWS Mt. Holly, NJ

Home | Current Version | Previous Version | Text Only | Print | Product List | Glossary On
Versions: 1 2 3 4 5 6 7 8 9 10 11 12 13 14 15 16
000
FTUS41 KPHI 310500
TAFABE
TAF
KABE 310526Z 3106/0106 18004KT P6SM SCT025 BKN040
      TEMPO 3108/3111 BKN015 OVC030
     FM311100 19007KT P6SM OVC010
     FM311600 23010KT P6SM VCSH SCT020 BKN035
      TEMPO 3118/3122 3SM TSRA OVC035CB
     FM312200 23007KT 4SM SHRA SCT025 OVC050
     FM010200 24004KT 6SM BR VCSH SCT035 OVC080=

USA.gov is the U.S. government's official web portal to all federal, state and local government web resources and services.